createdAt,value
2023-01-07T00:00:10.737Z,7.43
2023-01-07T00:08:02.680Z,7.46
2023-01-07T00:22:21.255Z,7.55
2023-01-07T00:24:52.125Z,7.53
2023-01-07T00:27:27.952Z,7.52
2023-01-07T00:30:03.499Z,7.53
2023-01-07T00:37:54.812Z,7.48
2023-01-07T00:40:27.481Z,7.46
2023-01-07T00:46:52.110Z,7.43
2023-01-07T00:49:27.663Z,7.42
2023-01-07T00:52:49.596Z,7.42
2023-01-07T01:00:27.695Z,7.41
2023-01-07T01:03:54.976Z,7.42
2023-01-07T01:20:58.399Z,7.37
2023-01-07T01:28:20.880Z,7.33
2023-01-07T01:39:58.093Z,7.29
2023-01-07T01:47:03.299Z,7.28
2023-01-07T01:53:57.282Z,7.25
2023-01-07T02:05:08.199Z,7.20
2023-01-07T02:21:27.106Z,7.18
2023-01-07T02:25:00.533Z,7.19
2023-01-07T02:53:51.405Z,7.12
2023-01-07T03:01:37.198Z,7.05
2023-01-07T03:09:21.555Z,6.95
2023-01-07T03:20:48.927Z,6.88
2023-01-07T03:32:19.198Z,6.79
2023-01-07T03:47:54.461Z,6.24
2023-01-07T03:50:59.764Z,6.10
2023-01-07T03:53:32.771Z,6.01
2023-01-07T04:18:27.420Z,5.10
2023-01-07T04:29:07.277Z,4.75
2023-01-07T04:31:40.316Z,4.68
2023-01-07T04:43:45.665Z,4.66
2023-01-07T05:04:10.441Z,4.51
2023-01-07T05:07:05.269Z,4.55
2023-01-07T05:09:44.831Z,4.59
2023-01-07T05:16:49.026Z,4.72
2023-01-07T05:20:12.411Z,4.75
2023-01-07T05:31:54.360Z,4.82
2023-01-07T05:34:28.664Z,4.83
2023-01-07T05:45:02.124Z,5.05
2023-01-07T05:55:50.357Z,5.20
2023-01-07T05:59:14.358Z,5.19
2023-01-07T06:06:17.101Z,5.15
2023-01-07T06:14:08.661Z,5.12
2023-01-07T06:18:31.443Z,5.11
2023-01-07T06:21:11.477Z,5.11
2023-01-07T06:23:59.907Z,5.13
2023-01-07T06:27:18.548Z,5.15
2023-01-07T06:29:51.435Z,5.11
2023-01-07T06:37:14.996Z,5.08
2023-01-07T06:39:56.641Z,5.09
2023-01-07T06:43:21.795Z,5.11
2023-01-07T06:47:46.111Z,5.14
2023-01-07T06:51:08.477Z,5.16
2023-01-07T06:53:44.093Z,5.21
2023-01-07T06:57:15.726Z,5.27
2023-01-07T07:00:11.943Z,5.31
2023-01-07T07:03:33.990Z,5.32
2023-01-07T07:06:07.701Z,5.34
2023-01-07T07:12:30.124Z,5.34
2023-01-07T07:15:10.514Z,5.33
2023-01-07T07:17:43.167Z,5.32
2023-01-07T07:20:21.109Z,5.32
2023-01-07T07:22:53.625Z,5.34
2023-01-07T07:25:26.542Z,5.38
2023-01-07T07:33:24.090Z,5.42
2023-01-07T07:35:56.595Z,5.39
2023-01-07T07:38:29.024Z,5.38
2023-01-07T07:41:08.049Z,5.37
2023-01-07T07:43:41.392Z,5.37
2023-01-07T07:46:40.033Z,5.39
2023-01-07T07:50:33.071Z,5.41
2023-01-07T07:56:56.221Z,5.69
2023-01-07T07:59:28.785Z,5.79
2023-01-07T08:02:57.790Z,5.90
2023-01-07T08:09:58.817Z,6.22
2023-01-07T08:12:33.038Z,6.41
2023-01-07T08:15:57.026Z,6.51
2023-01-07T08:18:31.790Z,6.55
2023-01-07T08:21:36.802Z,6.61
2023-01-07T08:25:16.143Z,6.63
2023-01-07T08:27:57.449Z,6.53
2023-01-07T08:30:30.820Z,6.45
2023-01-07T08:33:04.267Z,6.45
2023-01-07T08:36:23.159Z,6.62
2023-01-07T08:38:58.831Z,6.84
2023-01-07T08:46:47.927Z,7.92
2023-01-07T08:49:26.985Z,9.19
2023-01-07T08:51:59.383Z,10.18
2023-01-07T08:55:40.256Z,10.19
2023-01-07T08:58:12.744Z,9.98
2023-01-07T09:00:45.698Z,10.10
2023-01-07T09:03:24.964Z,10.69
2023-01-07T09:05:57.409Z,12.58
2023-01-07T09:08:31.631Z,14.46
2023-01-07T09:12:27.068Z,16.20
2023-01-07T09:15:02.246Z,17.87
2023-01-07T09:18:24.036Z,18.46
2023-01-07T09:25:50.549Z,19.02
2023-01-07T09:42:01.576Z,18.35
2023-01-07T09:58:28.594Z,15.51
2023-01-07T10:38:19.374Z,20.07
2023-01-07T10:45:59.335Z,20.43
2023-01-07T10:49:10.458Z,21.42
2023-01-07T11:03:40.329Z,22.04
2023-01-07T11:06:15.592Z,22.29
2023-01-07T11:09:50.341Z,23.60
2023-01-07T11:20:59.137Z,23.48
2023-01-07T11:24:47.467Z,23.18
2023-01-07T11:36:07.808Z,20.55
2023-01-07T11:52:30.212Z,16.10
2023-01-07T11:56:08.424Z,15.89
2023-01-07T11:58:49.195Z,15.52
2023-01-07T12:02:03.823Z,14.99
2023-01-07T12:04:43.077Z,14.61
2023-01-07T12:16:15.953Z,13.53
2023-01-07T12:19:15.602Z,13.29
2023-01-07T12:35:50.383Z,13.07
2023-01-07T12:54:04.521Z,15.15
2023-01-07T12:57:12.491Z,15.43
2023-01-07T13:04:08.569Z,15.31
2023-01-07T13:14:13.123Z,15.30
2023-01-07T13:16:45.823Z,14.87
2023-01-07T13:19:37.011Z,14.52
2023-01-07T13:23:05.627Z,14.15
2023-01-07T13:26:28.250Z,13.79
2023-01-07T13:29:20.925Z,13.24
2023-01-07T13:41:14.862Z,12.08
2023-01-07T13:53:08.374Z,11.26
2023-01-07T14:01:09.690Z,10.88
2023-01-07T14:08:15.611Z,10.58
2023-01-07T14:16:21.080Z,10.28
2023-01-07T14:23:39.537Z,9.94
2023-01-07T14:39:55.125Z,9.31
2023-01-07T14:47:47.132Z,9.09
2023-01-07T14:50:32.981Z,8.95
2023-01-07T14:53:49.597Z,8.83
2023-01-07T14:56:33.046Z,8.69
2023-01-07T14:59:38.383Z,8.54
2023-01-07T15:02:38.462Z,8.38
2023-01-07T15:05:57.857Z,8.23
2023-01-07T15:09:08.331Z,8.09
2023-01-07T15:12:08.735Z,7.97
2023-01-07T15:15:06.966Z,7.83
2023-01-07T15:17:45.029Z,7.68
2023-01-07T15:20:21.030Z,7.50
2023-01-07T15:23:11.034Z,7.35
2023-01-07T15:25:55.351Z,7.22
2023-01-07T15:28:42.321Z,7.09
2023-01-07T15:31:22.783Z,6.96
2023-01-07T15:34:12.087Z,6.86
2023-01-07T15:36:47.450Z,6.75
2023-01-07T15:39:29.749Z,6.67
2023-01-07T15:42:05.840Z,6.58
2023-01-07T15:44:45.464Z,6.50
2023-01-07T15:47:41.834Z,6.41
2023-01-07T15:50:27.720Z,6.28
2023-01-07T15:53:01.797Z,6.13
2023-01-07T15:55:37.570Z,6.00
2023-01-07T15:58:16.548Z,5.85
2023-01-07T16:00:52.922Z,5.78
2023-01-07T16:03:29.124Z,5.73
2023-01-07T16:06:02.206Z,5.68
2023-01-07T16:08:35.425Z,5.57
2023-01-07T16:17:19.792Z,5.35
2023-01-07T16:19:52.216Z,5.32
2023-01-07T16:22:28.829Z,5.28
2023-01-07T16:25:02.555Z,5.19
2023-01-07T16:27:38.733Z,5.08
2023-01-07T16:30:17.453Z,5.00
2023-01-07T16:32:50.120Z,4.95
2023-01-07T16:35:39.157Z,4.86
2023-01-07T16:38:16.700Z,4.74
2023-01-07T16:40:55.431Z,4.66
2023-01-07T16:43:46.821Z,4.59
2023-01-07T16:46:30.111Z,4.53
2023-01-07T16:49:31.665Z,4.51
2023-01-07T16:52:14.348Z,4.43
2023-01-07T16:54:47.816Z,4.35
2023-01-07T16:57:39.852Z,4.29
2023-01-07T17:00:25.292Z,4.27
2023-01-07T17:03:01.022Z,4.23
2023-01-07T17:05:35.279Z,4.16
2023-01-07T17:08:39.286Z,4.09
2023-01-07T17:11:24.508Z,4.03
2023-01-07T17:13:56.881Z,3.97
2023-01-07T17:16:33.617Z,3.92
2023-01-07T17:19:27.447Z,3.86
2023-01-07T17:22:00.028Z,3.71
2023-01-07T17:24:52.532Z,3.60
2023-01-07T17:27:31.051Z,3.54
2023-01-07T17:30:08.793Z,3.55
2023-01-07T17:32:43.558Z,3.54
2023-01-07T17:35:23.274Z,3.50
2023-01-07T17:37:56.889Z,3.45
2023-01-07T17:40:29.539Z,3.40
2023-01-07T17:43:34.868Z,3.31
2023-01-07T17:46:10.382Z,3.29
2023-01-07T17:48:42.806Z,3.26
2023-01-07T17:51:15.360Z,3.22
2023-01-07T17:53:49.451Z,3.20
2023-01-07T17:56:22.500Z,3.17
2023-01-07T17:58:56.229Z,3.15
2023-01-07T18:01:29.421Z,3.08
2023-01-07T18:04:02.234Z,3.04
2023-01-07T18:06:35.127Z,3.01
2023-01-07T18:09:08.751Z,2.99
2023-01-07T18:12:01.998Z,2.98
2023-01-07T18:14:34.472Z,2.97
2023-01-07T18:17:07.928Z,2.92
2023-01-07T18:19:40.421Z,2.89
2023-01-07T18:22:19.979Z,2.85
2023-01-07T18:24:52.748Z,2.80
2023-01-07T18:27:25.433Z,2.76
2023-01-07T18:29:58.083Z,2.74
2023-01-07T18:32:58.216Z,2.71
2023-01-07T18:35:30.926Z,2.67
2023-01-07T18:38:03.517Z,2.64
2023-01-07T18:40:35.908Z,2.62
2023-01-07T18:43:08.735Z,2.64
2023-01-07T18:45:43.305Z,2.65
2023-01-07T18:48:19.290Z,2.67
2023-01-07T18:50:53.980Z,2.67
2023-01-07T18:53:27.434Z,2.65
2023-01-07T18:56:03.867Z,2.61
2023-01-07T18:58:37.695Z,2.61
2023-01-07T19:01:11.922Z,2.60
2023-01-07T19:03:44.585Z,2.58
2023-01-07T19:06:19.120Z,2.56
2023-01-07T19:08:51.640Z,2.55
2023-01-07T19:11:31.578Z,2.54
2023-01-07T19:14:04.069Z,2.48
2023-01-07T19:16:39.058Z,2.43
2023-01-07T19:19:26.531Z,2.42
2023-01-07T19:22:01.285Z,2.38
2023-01-07T19:24:36.406Z,2.32
2023-01-07T19:27:08.888Z,2.29
2023-01-07T19:29:41.550Z,2.27
2023-01-07T19:32:14.007Z,2.25
2023-01-07T19:34:46.843Z,2.25
2023-01-07T19:37:22.042Z,2.28
2023-01-07T19:39:55.816Z,2.29
2023-01-07T19:42:28.791Z,2.29
2023-01-07T19:45:01.540Z,2.24
2023-01-07T19:47:35.496Z,2.22
2023-01-07T19:50:09.873Z,2.17
2023-01-07T19:52:47.564Z,2.11
2023-01-07T19:55:22.447Z,2.12
2023-01-07T19:58:02.355Z,2.12
2023-01-07T20:00:39.107Z,2.09
2023-01-07T20:03:11.635Z,2.07
2023-01-07T20:10:28.830Z,2.04
2023-01-07T20:13:01.384Z,2.02
2023-01-07T20:15:33.803Z,2.01
2023-01-07T20:18:09.292Z,1.99
2023-01-07T20:22:34.501Z,1.93
2023-01-07T20:25:16.821Z,1.90
2023-01-07T20:27:49.230Z,1.88
2023-01-07T20:30:27.972Z,1.88
2023-01-07T20:33:00.319Z,1.86
2023-01-07T20:35:39.886Z,1.83
2023-01-07T20:38:12.322Z,1.77
2023-01-07T20:40:50.802Z,1.68
2023-01-07T20:43:23.096Z,1.62
2023-01-07T20:46:03.960Z,1.62
2023-01-07T20:49:25.462Z,1.63
2023-01-07T20:52:30.797Z,1.64
2023-01-07T20:55:03.292Z,1.61
2023-01-07T20:57:44.765Z,1.58
2023-01-07T21:01:07.643Z,1.59
2023-01-07T21:04:02.277Z,1.56
2023-01-07T21:11:24.872Z,1.52
2023-01-07T21:22:30.071Z,1.53
2023-01-07T21:34:44.481Z,1.47
2023-01-07T21:37:16.999Z,1.48
2023-01-07T21:40:02.253Z,1.48
2023-01-07T21:43:15.747Z,1.45
2023-01-07T21:45:48.124Z,1.44
2023-01-07T21:48:23.186Z,1.42
2023-01-07T21:50:55.596Z,1.43
2023-01-07T21:53:33.536Z,1.44
2023-01-07T21:56:22.105Z,1.45
2023-01-07T21:58:54.558Z,1.44
2023-01-07T22:01:31.869Z,1.44
2023-01-07T22:04:04.578Z,1.42
2023-01-07T22:06:38.471Z,1.43
2023-01-07T22:12:15.588Z,1.37
2023-01-07T22:14:48.092Z,1.36
2023-01-07T22:17:20.731Z,1.35
2023-01-07T22:19:53.078Z,1.37
2023-01-07T22:22:27.283Z,1.37
2023-01-07T22:24:59.787Z,1.35
2023-01-07T22:27:33.658Z,1.33
2023-01-07T22:30:38.064Z,1.31
2023-01-07T22:33:10.624Z,1.29
2023-01-07T22:35:43.234Z,1.27
2023-01-07T22:38:46.121Z,1.30
2023-01-07T22:41:47.485Z,1.35
2023-01-07T22:53:25.972Z,1.64
2023-01-07T23:04:30.298Z,1.99
2023-01-07T23:12:06.275Z,2.12
2023-01-07T23:14:38.762Z,2.20
2023-01-07T23:21:01.238Z,2.32
2023-01-07T23:23:33.837Z,2.39
2023-01-07T23:31:07.183Z,2.48
2023-01-07T23:34:52.397Z,2.54
2023-01-07T23:37:30.863Z,2.60
2023-01-07T23:40:03.696Z,2.63
2023-01-07T23:43:03.692Z,2.65
2023-01-07T23:45:36.159Z,2.64
2023-01-07T23:48:37.133Z,2.66
2023-01-07T23:51:58.810Z,2.75
2023-01-07T23:54:44.339Z,2.82
2023-01-07T23:57:42.859Z,2.91
